createdAt,value
2018-09-13T00:00:12.235Z,99377.25
2018-09-13T00:02:41.517Z,99379.81
2018-09-13T00:05:10.528Z,99379.09
2018-09-13T00:07:39.544Z,99374.46
2018-09-13T00:10:08.532Z,99371.45
2018-09-13T00:12:37.456Z,99374.52
2018-09-13T00:15:07.424Z,99367.09
2018-09-13T00:17:36.701Z,99364.53
2018-09-13T00:20:05.772Z,99364.12
2018-09-13T00:22:34.751Z,99361.97
2018-09-13T00:25:04.097Z,99360.13
2018-09-13T00:27:32.986Z,99364.00
2018-09-13T00:30:01.926Z,99365.36
2018-09-13T00:32:31.185Z,99368.60
2018-09-13T00:35:00.097Z,99368.09
2018-09-13T00:37:29.066Z,99358.59
2018-09-13T00:39:58.314Z,99355.80
2018-09-13T00:42:27.177Z,99353.59
2018-09-13T00:44:56.075Z,99351.45
2018-09-13T00:47:25.313Z,99352.11
2018-09-13T00:49:54.234Z,99348.39
2018-09-13T00:52:23.112Z,99350.29
2018-09-13T00:54:52.332Z,99347.30
2018-09-13T00:57:21.237Z,99340.08
2018-09-13T00:59:50.133Z,99334.56
2018-09-13T01:02:19.289Z,99330.58
2018-09-13T01:04:48.259Z,99327.96
2018-09-13T01:07:17.238Z,99327.48
2018-09-13T01:09:46.542Z,99324.63
2018-09-13T01:12:15.390Z,99325.95
2018-09-13T01:14:44.217Z,99322.34
2018-09-13T01:17:13.451Z,99320.55
2018-09-13T01:19:42.424Z,99319.41
2018-09-13T01:22:11.420Z,99323.16
2018-09-13T01:24:40.320Z,99322.57
2018-09-13T01:27:09.391Z,99324.16
2018-09-13T01:29:38.265Z,99315.91
2018-09-13T01:32:07.488Z,99315.85
2018-09-13T01:34:36.388Z,99311.27
2018-09-13T01:37:05.235Z,99312.56
2018-09-13T01:39:34.116Z,99302.20
2018-09-13T01:42:02.989Z,99304.45
2018-09-13T01:44:31.932Z,99305.43
2018-09-13T01:47:01.212Z,99308.22
2018-09-13T01:49:30.228Z,99310.17
2018-09-13T01:51:59.192Z,99311.83
2018-09-13T01:54:28.089Z,99308.50
2018-09-13T01:56:57.107Z,99305.60
2018-09-13T01:59:26.067Z,99306.09
2018-09-13T02:01:55.042Z,99303.52
2018-09-13T02:04:23.857Z,99300.80
2018-09-13T02:06:52.794Z,99295.67
2018-09-13T02:09:21.690Z,99299.53
2018-09-13T02:11:50.613Z,99292.22
2018-09-13T02:14:19.559Z,99294.19
2018-09-13T02:16:48.408Z,99289.88
2018-09-13T02:19:17.398Z,99292.30
2018-09-13T02:21:46.317Z,99286.07
2018-09-13T02:24:15.266Z,99283.56
2018-09-13T02:26:44.263Z,99280.28
2018-09-13T02:29:13.170Z,99281.32
2018-09-13T02:31:42.179Z,99284.37
2018-09-13T02:34:11.149Z,99279.13
2018-09-13T02:36:40.034Z,99282.84
2018-09-13T02:39:10.418Z,99285.64
2018-09-13T02:41:39.715Z,99277.83
2018-09-13T02:46:38.339Z,99277.52
2018-09-13T02:49:07.426Z,99279.44
2018-09-13T02:51:36.290Z,99282.47
2018-09-13T02:54:05.218Z,99272.19
2018-09-13T02:56:34.162Z,99282.31
2018-09-13T02:59:03.158Z,99281.48
2018-09-13T03:01:32.229Z,99282.70
2018-09-13T03:04:01.128Z,99279.69
2018-09-13T03:06:30.709Z,99281.20
2018-09-13T03:08:59.625Z,99290.12
2018-09-13T03:11:28.678Z,99288.29
2018-09-13T03:13:57.591Z,99288.75
2018-09-13T03:16:26.513Z,99286.57
2018-09-13T03:18:55.593Z,99281.88
2018-09-13T03:21:24.552Z,99282.83
2018-09-13T03:23:53.483Z,99283.30
2018-09-13T03:26:22.328Z,99286.02
2018-09-13T03:28:51.374Z,99291.53
2018-09-13T03:31:20.249Z,99288.37
2018-09-13T03:33:49.195Z,99286.55
2018-09-13T03:36:18.307Z,99283.44
2018-09-13T03:38:47.244Z,99284.74
2018-09-13T03:41:16.256Z,99284.45
2018-09-13T03:43:45.230Z,99282.48
2018-09-13T03:46:14.301Z,99280.30
2018-09-13T03:48:43.208Z,99288.00
2018-09-13T03:51:45.513Z,99278.32
2018-09-13T03:54:14.372Z,99276.18
2018-09-13T03:56:43.260Z,99273.62
2018-09-13T03:59:12.135Z,99279.30
2018-09-13T04:01:41.068Z,99274.53
2018-09-13T04:04:09.995Z,99268.55
2018-09-13T04:06:38.891Z,99270.45
2018-09-13T04:09:09.973Z,99272.28
2018-09-13T04:11:38.943Z,99273.25
2018-09-13T04:14:08.038Z,99265.38
2018-09-13T04:16:36.844Z,99269.55
2018-09-13T04:19:05.773Z,99261.00
2018-09-13T04:21:34.640Z,99267.05
2018-09-13T04:24:03.732Z,99268.73
2018-09-13T04:26:32.681Z,99269.37
2018-09-13T04:29:01.522Z,99270.16
2018-09-13T04:31:30.359Z,99274.32
2018-09-13T04:33:59.283Z,99275.82
2018-09-13T04:36:28.150Z,99273.92
2018-09-13T04:38:57.100Z,99271.06
2018-09-13T04:41:25.940Z,99273.56
2018-09-13T04:43:54.964Z,99276.72
2018-09-13T04:46:23.939Z,99269.63
2018-09-13T04:48:52.749Z,99269.63
2018-09-13T04:51:21.699Z,99275.42
2018-09-13T04:53:50.568Z,99273.45
2018-09-13T04:56:19.506Z,99280.53
2018-09-13T04:58:48.352Z,99279.80
2018-09-13T05:01:17.385Z,99282.72
2018-09-13T05:03:46.219Z,99280.05
2018-09-13T05:06:15.112Z,99277.02
2018-09-13T05:08:43.979Z,99280.36
2018-09-13T05:11:12.769Z,99284.55
2018-09-13T05:13:41.625Z,99284.05
2018-09-13T05:16:10.435Z,99277.05
2018-09-13T05:18:39.351Z,99269.30
2018-09-13T05:21:08.614Z,99278.95
2018-09-13T05:23:37.479Z,99275.08
2018-09-13T05:26:06.437Z,99274.64
2018-09-13T05:28:35.405Z,99275.67
2018-09-13T05:31:04.405Z,99281.91
2018-09-13T05:33:33.330Z,99275.87
2018-09-13T05:36:02.239Z,99270.48
2018-09-13T05:38:31.261Z,99267.67
2018-09-13T05:41:00.149Z,99267.95
2018-09-13T05:43:29.029Z,99272.03
2018-09-13T05:45:58.031Z,99257.42
2018-09-13T05:48:26.922Z,99262.14
2018-09-13T05:50:55.946Z,99266.67
2018-09-13T05:53:24.745Z,99265.64
2018-09-13T05:55:53.604Z,99269.33
2018-09-13T05:58:22.447Z,99279.43
2018-09-13T06:00:51.391Z,99285.36
2018-09-13T06:03:20.390Z,99284.23
2018-09-13T06:05:49.531Z,99291.45
2018-09-13T06:08:18.349Z,99290.98
2018-09-13T06:10:47.280Z,99290.23
2018-09-13T06:13:16.218Z,99293.70
2018-09-13T06:15:45.203Z,99298.20
2018-09-13T06:18:14.235Z,99296.75
2018-09-13T06:20:43.243Z,99298.23
2018-09-13T06:23:12.192Z,99298.13
2018-09-13T06:25:41.269Z,99294.14
2018-09-13T06:28:10.149Z,99298.95
2018-09-13T06:30:39.012Z,99300.08
2018-09-13T06:33:08.014Z,99302.10
2018-09-13T06:35:36.934Z,99294.73
2018-09-13T06:38:05.890Z,99288.86
2018-09-13T06:40:34.776Z,99290.53
2018-09-13T06:43:03.707Z,99291.64
2018-09-13T06:45:32.511Z,99293.25
2018-09-13T06:48:01.506Z,99292.64
2018-09-13T06:50:30.567Z,99299.20
2018-09-13T06:52:59.521Z,99300.26
2018-09-13T06:55:28.345Z,99309.55
2018-09-13T06:57:57.274Z,99307.37
2018-09-13T07:00:26.292Z,99310.68
2018-09-13T07:02:55.285Z,99303.94
2018-09-13T07:05:24.772Z,99312.06
2018-09-13T07:07:53.653Z,99310.78
2018-09-13T07:10:22.953Z,99308.00
2018-09-13T07:12:51.846Z,99314.41
2018-09-13T07:15:20.792Z,99316.34
2018-09-13T07:17:49.681Z,99317.80
2018-09-13T07:20:18.620Z,99315.81
2018-09-13T07:22:47.476Z,99313.02
2018-09-13T07:25:16.405Z,99298.70
2018-09-13T07:27:45.283Z,99302.06
2018-09-13T07:30:14.190Z,99299.21
2018-09-13T07:32:43.043Z,99301.36
2018-09-13T07:35:11.873Z,99303.20
2018-09-13T07:37:40.769Z,99299.21
2018-09-13T07:40:09.733Z,99296.77
2018-09-13T07:42:38.603Z,99295.97
2018-09-13T07:45:07.601Z,99300.98
2018-09-13T07:47:36.570Z,99296.77
2018-09-13T07:50:05.570Z,99298.34
2018-09-13T07:52:34.529Z,99300.78
2018-09-13T07:55:03.419Z,99296.39
2018-09-13T07:57:32.318Z,99297.64
2018-09-13T08:00:01.250Z,99294.23
2018-09-13T08:02:30.223Z,99296.61
2018-09-13T08:04:59.157Z,99286.67
2018-09-13T08:07:27.954Z,99285.52
2018-09-13T08:09:56.881Z,99285.94
2018-09-13T08:12:25.783Z,99280.54
2018-09-13T08:14:54.653Z,99274.77
2018-09-13T08:17:23.975Z,99274.16
2018-09-13T08:19:52.906Z,99266.72
2018-09-13T08:22:21.856Z,99266.38
2018-09-13T08:24:51.083Z,99256.06
2018-09-13T08:27:20.063Z,99253.64
2018-09-13T08:29:48.898Z,99247.08
2018-09-13T08:32:18.108Z,99247.27
2018-09-13T08:34:47.044Z,99245.03
2018-09-13T08:37:16.010Z,99243.89
2018-09-13T08:39:44.983Z,99242.32
2018-09-13T08:42:13.789Z,99239.17
2018-09-13T08:44:42.761Z,99233.46
2018-09-13T08:47:11.961Z,99240.42
2018-09-13T08:49:40.859Z,99248.81
2018-09-13T08:52:09.796Z,99235.22
2018-09-13T08:54:38.632Z,99236.63
2018-09-13T08:57:07.622Z,99245.22
2018-09-13T08:59:36.453Z,99238.40
2018-09-13T09:02:05.789Z,99228.64
2018-09-13T09:04:34.704Z,99226.73
2018-09-13T09:07:03.568Z,99220.92
2018-09-13T09:09:32.510Z,99220.38
2018-09-13T09:12:01.530Z,99218.48
2018-09-13T09:14:30.309Z,99215.07
2018-09-13T09:16:59.568Z,99203.03
2018-09-13T09:19:28.451Z,99212.41
2018-09-13T09:21:57.547Z,99212.70
2018-09-13T09:24:26.800Z,99208.57
2018-09-13T09:26:55.672Z,99202.95
2018-09-13T09:29:24.522Z,99209.88
2018-09-13T09:31:53.774Z,99199.94
2018-09-13T09:34:22.685Z,99198.63
2018-09-13T09:36:51.494Z,99199.73
2018-09-13T09:39:20.452Z,99193.30
2018-09-13T09:41:49.282Z,99192.24
2018-09-13T09:44:18.170Z,99198.18
2018-09-13T09:46:46.997Z,99183.41
2018-09-13T09:49:15.838Z,99187.44
2018-09-13T09:51:44.822Z,99186.05
2018-09-13T09:54:13.676Z,99182.38
2018-09-13T09:56:42.497Z,99184.77
2018-09-13T09:59:11.358Z,99182.03
2018-09-13T10:01:45.291Z,99162.58
2018-09-13T10:04:14.309Z,99170.48
2018-09-13T10:06:43.197Z,99164.22
2018-09-13T10:09:12.167Z,99159.63
2018-09-13T10:11:41.000Z,99153.44
2018-09-13T10:14:09.980Z,99145.06
2018-09-13T10:17:43.617Z,99138.11
2018-09-13T10:20:17.671Z,99136.04
2018-09-13T10:22:52.056Z,99124.09
2018-09-13T10:25:26.083Z,99126.41
2018-09-13T10:28:00.061Z,99114.97
2018-09-13T10:30:34.018Z,99109.53
2018-09-13T10:33:08.536Z,99114.81
2018-09-13T10:35:42.574Z,99101.95
2018-09-13T10:38:16.904Z,99092.34
2018-09-13T10:40:50.729Z,99087.81
2018-09-13T10:43:24.707Z,99088.07
2018-09-13T10:45:58.938Z,99076.28
2018-09-13T10:48:29.171Z,99070.71
2018-09-13T10:51:03.692Z,99068.80
2018-09-13T10:54:10.876Z,99064.14
2018-09-13T10:56:40.506Z,99059.78
2018-09-13T10:59:09.383Z,99058.88
2018-09-13T11:01:38.836Z,99055.52
2018-09-13T11:04:08.274Z,99055.83
2018-09-13T11:06:37.172Z,99060.80
2018-09-13T11:09:06.752Z,99064.54
2018-09-13T11:11:36.095Z,99054.09
2018-09-13T11:14:12.128Z,99058.67
2018-09-13T11:16:41.345Z,99050.78
2018-09-13T11:19:10.217Z,99043.36
2018-09-13T11:21:39.894Z,99041.46
2018-09-13T11:24:09.689Z,99041.00
2018-09-13T11:26:38.539Z,99035.70
2018-09-13T11:29:07.384Z,99033.39
2018-09-13T11:31:36.664Z,99031.45
2018-09-13T11:34:05.590Z,99035.02
2018-09-13T11:36:35.310Z,99031.03
2018-09-13T11:39:06.287Z,99031.84
2018-09-13T11:41:35.140Z,99035.92
2018-09-13T11:44:03.944Z,99044.80
2018-09-13T11:46:33.091Z,99040.44
2018-09-13T11:49:01.887Z,99043.14
2018-09-13T11:51:30.738Z,99043.15
2018-09-13T11:53:59.891Z,99053.97
2018-09-13T11:56:28.771Z,99048.67
2018-09-13T11:58:57.635Z,99050.31
2018-09-13T12:01:26.593Z,99060.11
2018-09-13T12:03:55.458Z,99058.38
2018-09-13T12:06:24.367Z,99051.23
2018-09-13T12:08:53.534Z,99044.53
2018-09-13T12:11:22.396Z,99043.58
2018-09-13T12:13:51.221Z,99051.09
2018-09-13T12:16:20.606Z,99046.84
2018-09-13T12:18:49.605Z,99044.49
2018-09-13T12:21:18.917Z,99042.30
2018-09-13T12:23:48.146Z,99036.96
2018-09-13T12:26:17.023Z,99029.94
2018-09-13T12:28:45.872Z,99029.04
2018-09-13T12:31:15.459Z,99029.00
2018-09-13T12:33:44.417Z,99025.75
2018-09-13T12:36:13.281Z,99027.43
2018-09-13T12:38:42.211Z,99019.32
2018-09-13T12:41:11.029Z,99017.50
2018-09-13T12:43:39.848Z,99019.00
2018-09-13T12:46:09.161Z,99002.13
2018-09-13T12:48:38.164Z,99008.84
2018-09-13T12:51:07.259Z,99017.86
2018-09-13T12:53:36.643Z,99013.83
2018-09-13T12:56:05.825Z,99002.91
2018-09-13T12:58:34.940Z,98995.47
2018-09-13T13:01:04.199Z,98997.00
2018-09-13T13:03:33.101Z,98989.45
2018-09-13T13:06:02.101Z,98983.39
2018-09-13T13:08:31.515Z,98980.75
2018-09-13T13:11:00.521Z,98975.22
2018-09-13T13:13:29.456Z,98978.38
2018-09-13T13:15:58.400Z,98972.45
2018-09-13T13:18:27.387Z,98963.06
2018-09-13T13:20:56.444Z,98955.05
2018-09-13T13:23:25.770Z,98952.59
2018-09-13T13:25:55.662Z,98951.30
2018-09-13T13:28:24.569Z,98943.80
2018-09-13T13:30:53.846Z,98952.24
2018-09-13T13:33:22.731Z,98942.39
2018-09-13T13:35:51.618Z,98937.83
2018-09-13T13:38:20.858Z,98933.27
2018-09-13T13:40:49.844Z,98931.34
2018-09-13T13:43:19.315Z,98919.00
2018-09-13T13:45:48.685Z,98911.02
2018-09-13T13:48:17.661Z,98910.00
2018-09-13T13:50:46.606Z,98899.16
2018-09-13T13:53:15.533Z,98896.04
2018-09-13T13:55:44.482Z,98888.54
2018-09-13T13:58:13.564Z,98889.01
2018-09-13T14:00:42.598Z,98886.75
2018-09-13T14:03:11.626Z,98887.36
2018-09-13T14:05:40.685Z,98886.56
2018-09-13T14:08:10.026Z,98883.64
2018-09-13T14:10:39.182Z,98883.55
2018-09-13T14:13:08.224Z,98882.38
2018-09-13T14:15:37.252Z,98888.77
2018-09-13T14:18:06.647Z,98884.25
2018-09-13T14:20:35.754Z,98888.90
2018-09-13T14:23:05.152Z,98890.86
2018-09-13T14:25:34.205Z,98889.97
2018-09-13T14:28:03.281Z,98895.44
2018-09-13T14:30:32.295Z,98896.77
2018-09-13T14:33:01.309Z,98895.52
2018-09-13T14:35:30.338Z,98903.94
2018-09-13T14:37:59.455Z,98902.28
2018-09-13T14:40:28.581Z,98901.82
2018-09-13T14:42:57.643Z,98903.16
2018-09-13T14:45:27.007Z,98907.63
2018-09-13T14:47:56.052Z,98897.13
2018-09-13T14:50:25.057Z,98901.02
2018-09-13T14:52:54.433Z,98903.30
2018-09-13T14:55:23.511Z,98900.79
2018-09-13T14:57:52.536Z,98905.20
2018-09-13T15:00:21.897Z,98917.16
2018-09-13T15:02:50.960Z,98911.60
2018-09-13T15:05:19.996Z,98918.02
2018-09-13T15:07:49.494Z,98921.02
2018-09-13T15:10:18.439Z,98921.14
2018-09-13T15:12:47.689Z,98917.73
2018-09-13T15:15:16.807Z,98920.30
2018-09-13T15:17:45.835Z,98914.95
2018-09-13T15:20:14.933Z,98915.87
2018-09-13T15:22:44.448Z,98912.52
2018-09-13T15:25:13.443Z,98909.16
2018-09-13T15:27:42.367Z,98915.12
2018-09-13T15:30:11.680Z,98922.70
2018-09-13T15:32:40.715Z,98915.25
2018-09-13T15:35:09.739Z,98915.81
2018-09-13T15:37:39.080Z,98917.34
2018-09-13T15:40:08.105Z,98914.11
2018-09-13T15:42:37.149Z,98903.87
2018-09-13T15:45:06.424Z,98912.73
2018-09-13T15:47:35.443Z,98908.44
2018-09-13T15:50:04.536Z,98910.70
2018-09-13T15:52:33.868Z,98907.09
2018-09-13T15:55:02.853Z,98905.43
2018-09-13T15:57:31.977Z,98905.58
2018-09-13T16:00:00.974Z,98904.89
2018-09-13T16:02:30.035Z,98909.67
2018-09-13T16:04:59.119Z,98904.53
2018-09-13T16:07:28.164Z,98911.59
2018-09-13T16:09:57.102Z,98910.78
2018-09-13T16:12:27.179Z,98914.10
2018-09-13T16:14:56.412Z,98907.18
2018-09-13T16:17:25.468Z,98914.13
2018-09-13T16:19:54.620Z,98913.28
2018-09-13T16:22:23.966Z,98915.45
2018-09-13T16:24:52.986Z,98912.52
2018-09-13T16:27:22.140Z,98912.55
2018-09-13T16:29:51.555Z,98914.18
2018-09-13T16:32:22.725Z,98914.18
2018-09-13T16:34:52.396Z,98913.73
2018-09-13T16:37:26.452Z,98914.16
2018-09-13T16:40:05.206Z,98909.13
2018-09-13T16:42:42.144Z,98910.58
2018-09-13T16:45:12.564Z,98912.26
2018-09-13T16:47:46.845Z,98909.63
2018-09-13T16:50:15.878Z,98907.80
2018-09-13T16:52:44.813Z,98912.56
2018-09-13T16:55:13.784Z,98907.36
2018-09-13T16:57:43.068Z,98907.44
2018-09-13T17:00:11.986Z,98906.62
2018-09-13T17:02:40.981Z,98910.89
2018-09-13T17:05:10.132Z,98908.35
2018-09-13T17:07:39.176Z,98909.92
2018-09-13T17:10:08.245Z,98912.87
2018-09-13T17:12:37.417Z,98912.14
2018-09-13T17:15:06.663Z,98910.18
2018-09-13T17:17:35.568Z,98909.64
2018-09-13T17:20:04.869Z,98910.20
2018-09-13T17:22:33.817Z,98910.75
2018-09-13T17:25:02.901Z,98913.78
2018-09-13T17:27:32.332Z,98917.33
2018-09-13T17:30:01.390Z,98924.73
2018-09-13T17:32:30.395Z,98928.87
2018-09-13T17:34:59.434Z,98932.97
2018-09-13T17:37:28.390Z,98933.81
2018-09-13T17:39:57.346Z,98933.80
2018-09-13T17:42:26.453Z,98928.02
2018-09-13T17:44:55.494Z,98927.21
2018-09-13T17:47:24.411Z,98936.27
2018-09-13T17:49:53.447Z,98936.55
2018-09-13T17:52:22.439Z,98941.23
2018-09-13T17:54:51.517Z,98948.06
2018-09-13T17:57:20.468Z,98933.78
2018-09-13T17:59:49.365Z,98941.46
2018-09-13T18:02:18.324Z,98935.16
2018-09-13T18:04:47.156Z,98935.16
2018-09-13T18:07:16.068Z,98938.45
2018-09-13T18:09:44.964Z,98937.64
2018-09-13T18:12:13.861Z,98946.13
2018-09-13T18:14:42.814Z,98949.95
2018-09-13T18:17:11.643Z,98951.07
2018-09-13T18:19:40.504Z,98947.25
2018-09-13T18:22:09.330Z,98946.64
2018-09-13T18:24:38.220Z,98951.55
2018-09-13T18:27:07.084Z,98950.70
2018-09-13T18:29:36.019Z,98941.91
2018-09-13T18:32:04.954Z,98947.39
2018-09-13T18:34:33.918Z,98947.45
2018-09-13T18:37:02.853Z,98952.62
2018-09-13T18:39:31.860Z,98955.37
2018-09-13T18:42:00.805Z,98954.88
2018-09-13T18:44:29.788Z,98954.32
2018-09-13T18:46:58.691Z,98949.37
2018-09-13T18:49:27.676Z,98951.02
2018-09-13T18:51:56.707Z,98955.93
2018-09-13T18:54:25.714Z,98953.94
2018-09-13T18:56:54.947Z,98956.58
2018-09-13T18:59:23.929Z,98952.73
2018-09-13T19:01:52.795Z,98953.03
2018-09-13T19:04:21.709Z,98950.52
2018-09-13T19:06:50.799Z,98962.42
2018-09-13T19:09:19.736Z,98972.52
2018-09-13T19:11:48.607Z,98973.63
2018-09-13T19:14:17.786Z,98985.06
2018-09-13T19:16:46.767Z,98994.43
2018-09-13T19:19:15.746Z,98999.93
2018-09-13T19:21:44.708Z,99005.92
2018-09-13T19:24:13.657Z,99003.30
2018-09-13T19:26:42.594Z,99003.09
2018-09-13T19:29:11.582Z,99006.83
2018-09-13T19:31:40.585Z,99013.28
2018-09-13T19:34:09.807Z,99005.90
2018-09-13T19:36:38.819Z,98999.51
2018-09-13T19:39:10.690Z,98993.73
2018-09-13T19:41:39.899Z,98985.89
2018-09-13T19:44:08.875Z,98984.77
2018-09-13T19:46:37.872Z,98982.33
2018-09-13T19:49:06.959Z,98983.52
2018-09-13T19:51:35.942Z,98980.61
2018-09-13T19:54:04.866Z,98981.48
2018-09-13T19:56:33.775Z,98987.21
2018-09-13T19:59:02.708Z,98988.10
2018-09-13T20:01:31.546Z,98989.20
2018-09-13T20:04:00.485Z,98983.17
2018-09-13T20:06:29.335Z,98982.86
2018-09-13T20:08:58.267Z,98986.21
2018-09-13T20:11:27.186Z,98989.02
2018-09-13T20:13:56.352Z,98980.73
2018-09-13T20:16:25.226Z,98979.28
2018-09-13T20:18:54.517Z,98989.84
2018-09-13T20:21:23.446Z,98993.13
2018-09-13T20:23:52.391Z,98993.18
2018-09-13T20:26:21.313Z,98990.20
2018-09-13T20:28:50.352Z,98991.69
2018-09-13T20:31:19.199Z,98993.08
2018-09-13T20:33:48.109Z,98998.52
2018-09-13T20:36:16.981Z,98993.97
2018-09-13T20:38:45.951Z,98998.93
2018-09-13T20:41:14.893Z,98998.95
2018-09-13T20:43:43.844Z,99000.35
2018-09-13T20:46:13.154Z,99001.24
2018-09-13T20:48:42.111Z,99002.66
2018-09-13T20:51:11.027Z,98997.09
2018-09-13T20:53:39.975Z,99001.41
2018-09-13T20:56:08.836Z,98999.86
2018-09-13T20:58:37.740Z,98997.30
2018-09-13T21:01:06.698Z,99001.67
2018-09-13T21:03:35.511Z,98994.45
2018-09-13T21:06:04.457Z,99002.29
2018-09-13T21:08:33.355Z,99007.09
2018-09-13T21:11:02.210Z,99002.91
2018-09-13T21:13:31.189Z,99004.05
2018-09-13T21:16:00.123Z,99002.70
2018-09-13T21:18:29.168Z,99004.80
2018-09-13T21:20:58.043Z,99006.54
2018-09-13T21:23:27.310Z,99003.14
2018-09-13T21:25:56.388Z,99001.00
2018-09-13T21:28:25.323Z,99005.84
2018-09-13T21:30:54.353Z,99011.13
2018-09-13T21:33:23.257Z,99004.75
2018-09-13T21:35:52.208Z,98998.39
2018-09-13T21:38:21.063Z,98999.95
2018-09-13T21:40:49.952Z,98998.62
2018-09-13T21:43:18.820Z,98995.98
2018-09-13T21:45:47.724Z,98993.78
2018-09-13T21:48:16.663Z,98992.38
2018-09-13T21:50:45.663Z,98987.14
2018-09-13T21:53:14.524Z,98990.64
2018-09-13T21:55:44.107Z,98987.73
2018-09-13T21:58:13.052Z,98989.27
2018-09-13T22:00:41.945Z,98987.72
2018-09-13T22:03:10.919Z,98991.64
2018-09-13T22:05:39.753Z,98991.70
2018-09-13T22:08:08.588Z,98994.20
2018-09-13T22:10:37.519Z,98991.01
2018-09-13T22:13:06.535Z,98992.31
2018-09-13T22:15:35.571Z,98995.02
2018-09-13T22:18:04.536Z,98993.34
2018-09-13T22:20:33.516Z,98995.93
2018-09-13T22:23:02.366Z,98997.91
2018-09-13T22:25:31.464Z,98996.96
2018-09-13T22:28:00.390Z,99000.36
2018-09-13T22:30:29.197Z,98997.16
2018-09-13T22:32:58.020Z,98998.22
2018-09-13T22:35:26.922Z,99000.16
2018-09-13T22:37:55.773Z,99000.95
2018-09-13T22:40:24.694Z,99006.73
2018-09-13T22:42:53.652Z,99006.77
2018-09-13T22:45:22.470Z,99016.63
2018-09-13T22:47:51.335Z,99016.88
2018-09-13T22:50:20.184Z,99022.27
2018-09-13T22:52:48.987Z,99022.02
2018-09-13T22:55:17.868Z,99020.81
2018-09-13T22:57:46.783Z,99021.34
2018-09-13T23:00:15.766Z,99024.55
2018-09-13T23:02:49.293Z,99026.64
2018-09-13T23:05:19.245Z,99025.72
2018-09-13T23:07:48.240Z,99023.31
2018-09-13T23:10:17.577Z,99022.73
2018-09-13T23:12:46.809Z,99020.05
2018-09-13T23:15:15.784Z,99027.78
2018-09-13T23:17:44.794Z,99023.08
2018-09-13T23:20:13.931Z,99022.64
2018-09-13T23:22:42.885Z,99027.03
2018-09-13T23:25:11.786Z,99023.26
2018-09-13T23:27:40.608Z,99025.40
2018-09-13T23:30:09.533Z,99024.52
2018-09-13T23:32:38.388Z,99022.81
2018-09-13T23:35:07.352Z,99023.36
2018-09-13T23:37:36.156Z,99023.21
2018-09-13T23:40:05.119Z,99014.58
2018-09-13T23:42:33.964Z,99014.48
2018-09-13T23:45:02.842Z,99008.33
2018-09-13T23:47:31.770Z,99014.22
2018-09-13T23:50:00.698Z,99013.97
2018-09-13T23:52:29.586Z,99006.50
2018-09-13T23:54:58.400Z,99007.44
2018-09-13T23:57:27.246Z,99001.25
2018-09-13T23:59:56.057Z,99003.34
